sensor_id;sensor_type;location;lat;lon;timestamp;P1;durP1;ratioP1;P2;durP2;ratioP2
58496;SDS011;44284;51.310;16.904;2023-02-15T00:01:17;43.50;;;18.88;;
58496;SDS011;44284;51.310;16.904;2023-02-15T00:03:43;42.65;;;19.05;;
58496;SDS011;44284;51.310;16.904;2023-02-15T00:06:09;45.22;;;18.52;;
58496;SDS011;44284;51.310;16.904;2023-02-15T00:08:35;47.70;;;19.80;;
58496;SDS011;44284;51.310;16.904;2023-02-15T00:11:08;41.75;;;18.00;;
58496;SDS011;44284;51.310;16.904;2023-02-15T00:13:35;43.63;;;18.95;;
58496;SDS011;44284;51.310;16.904;2023-02-15T00:16:03;44.97;;;19.67;;
58496;SDS011;44284;51.310;16.904;2023-02-15T00:18:30;41.90;;;18.30;;
58496;SDS011;44284;51.310;16.904;2023-02-15T00:20:56;39.88;;;16.77;;
58496;SDS011;44284;51.310;16.904;2023-02-15T00:23:22;40.15;;;17.92;;
58496;SDS011;44284;51.310;16.904;2023-02-15T00:25:48;34.30;;;17.30;;
58496;SDS011;44284;51.310;16.904;2023-02-15T00:28:15;40.92;;;18.92;;
58496;SDS011;44284;51.310;16.904;2023-02-15T00:30:41;43.17;;;17.85;;
58496;SDS011;44284;51.310;16.904;2023-02-15T00:33:07;41.83;;;17.13;;
58496;SDS011;44284;51.310;16.904;2023-02-15T00:35:33;39.90;;;17.40;;
58496;SDS011;44284;51.310;16.904;2023-02-15T00:37:59;40.25;;;17.08;;
58496;SDS011;44284;51.310;16.904;2023-02-15T00:40:25;38.85;;;16.83;;
58496;SDS011;44284;51.310;16.904;2023-02-15T00:42:51;39.70;;;17.27;;
58496;SDS011;44284;51.310;16.904;2023-02-15T00:45:17;35.80;;;16.05;;
58496;SDS011;44284;51.310;16.904;2023-02-15T00:47:43;38.80;;;16.65;;
58496;SDS011;44284;51.310;16.904;2023-02-15T00:50:09;36.30;;;16.55;;
58496;SDS011;44284;51.310;16.904;2023-02-15T00:52:35;35.75;;;16.23;;
58496;SDS011;44284;51.310;16.904;2023-02-15T00:55:01;38.38;;;15.10;;
58496;SDS011;44284;51.310;16.904;2023-02-15T00:57:27;36.08;;;16.13;;
58496;SDS011;44284;51.310;16.904;2023-02-15T00:59:53;32.92;;;15.23;;
58496;SDS011;44284;51.310;16.904;2023-02-15T01:02:19;36.45;;;17.58;;
58496;SDS011;44284;51.310;16.904;2023-02-15T01:04:45;40.05;;;15.15;;
58496;SDS011;44284;51.310;16.904;2023-02-15T01:07:11;31.15;;;14.85;;
58496;SDS011;44284;51.310;16.904;2023-02-15T01:09:37;35.58;;;14.30;;
58496;SDS011;44284;51.310;16.904;2023-02-15T01:12:03;30.10;;;15.48;;
58496;SDS011;44284;51.310;16.904;2023-02-15T01:14:29;37.22;;;15.60;;
58496;SDS011;44284;51.310;16.904;2023-02-15T01:16:55;32.22;;;13.98;;
58496;SDS011;44284;51.310;16.904;2023-02-15T01:19:21;33.10;;;15.40;;
58496;SDS011;44284;51.310;16.904;2023-02-15T01:21:47;34.47;;;13.80;;
58496;SDS011;44284;51.310;16.904;2023-02-15T01:24:13;33.58;;;14.10;;
58496;SDS011;44284;51.310;16.904;2023-02-15T01:26:40;36.17;;;14.30;;
58496;SDS011;44284;51.310;16.904;2023-02-15T01:29:06;33.95;;;13.63;;
58496;SDS011;44284;51.310;16.904;2023-02-15T01:31:32;34.28;;;16.05;;
58496;SDS011;44284;51.310;16.904;2023-02-15T01:33:58;32.47;;;14.48;;
58496;SDS011;44284;51.310;16.904;2023-02-15T01:36:24;37.00;;;15.32;;
58496;SDS011;44284;51.310;16.904;2023-02-15T01:38:50;30.38;;;14.10;;
58496;SDS011;44284;51.310;16.904;2023-02-15T01:41:16;32.85;;;15.20;;
58496;SDS011;44284;51.310;16.904;2023-02-15T01:43:52;36.30;;;15.35;;
58496;SDS011;44284;51.310;16.904;2023-02-15T01:46:22;31.25;;;14.65;;
58496;SDS011;44284;51.310;16.904;2023-02-15T01:48:49;29.38;;;14.10;;
58496;SDS011;44284;51.310;16.904;2023-02-15T01:51:18;35.22;;;15.18;;
58496;SDS011;44284;51.310;16.904;2023-02-15T01:54:09;35.00;;;15.10;;
58496;SDS011;44284;51.310;16.904;2023-02-15T01:56:33;35.75;;;16.05;;
58496;SDS011;44284;51.310;16.904;2023-02-15T01:59:02;32.50;;;14.43;;
58496;SDS011;44284;51.310;16.904;2023-02-15T02:01:30;38.67;;;17.15;;
58496;SDS011;44284;51.310;16.904;2023-02-15T02:06:41;36.38;;;14.38;;
58496;SDS011;44284;51.310;16.904;2023-02-15T02:09:07;40.55;;;17.17;;
58496;SDS011;44284;51.310;16.904;2023-02-15T02:11:34;35.40;;;15.55;;
58496;SDS011;44284;51.310;16.904;2023-02-15T02:14:01;34.42;;;17.10;;
58496;SDS011;44284;51.310;16.904;2023-02-15T02:25:11;40.87;;;18.53;;
58496;SDS011;44284;51.310;16.904;2023-02-15T02:35:19;38.45;;;17.65;;
58496;SDS011;44284;51.310;16.904;2023-02-15T02:37:54;44.95;;;18.38;;
58496;SDS011;44284;51.310;16.904;2023-02-15T02:42:58;39.72;;;17.83;;
58496;SDS011;44284;51.310;16.904;2023-02-15T02:45:28;39.08;;;18.20;;
58496;SDS011;44284;51.310;16.904;2023-02-15T02:48:02;38.50;;;17.25;;
58496;SDS011;44284;51.310;16.904;2023-02-15T02:50:29;40.88;;;16.77;;
58496;SDS011;44284;51.310;16.904;2023-02-15T02:52:56;44.25;;;19.45;;
58496;SDS011;44284;51.310;16.904;2023-02-15T02:55:24;43.05;;;19.90;;
58496;SDS011;44284;51.310;16.904;2023-02-15T03:00:18;34.58;;;17.13;;
58496;SDS011;44284;51.310;16.904;2023-02-15T03:02:44;38.00;;;16.95;;
58496;SDS011;44284;51.310;16.904;2023-02-15T03:05:15;39.03;;;17.85;;
58496;SDS011;44284;51.310;16.904;2023-02-15T03:07:42;44.70;;;17.70;;
58496;SDS011;44284;51.310;16.904;2023-02-15T03:10:09;36.08;;;16.08;;
58496;SDS011;44284;51.310;16.904;2023-02-15T03:12:36;37.80;;;16.15;;
58496;SDS011;44284;51.310;16.904;2023-02-15T03:15:08;31.08;;;15.02;;
58496;SDS011;44284;51.310;16.904;2023-02-15T03:17:36;33.13;;;14.35;;
58496;SDS011;44284;51.310;16.904;2023-02-15T03:20:08;34.60;;;15.20;;
58496;SDS011;44284;51.310;16.904;2023-02-15T03:22:45;36.17;;;15.70;;
58496;SDS011;44284;51.310;16.904;2023-02-15T03:25:22;37.78;;;15.35;;
58496;SDS011;44284;51.310;16.904;2023-02-15T03:27:52;32.22;;;16.02;;
58496;SDS011;44284;51.310;16.904;2023-02-15T03:30:20;33.17;;;15.93;;
58496;SDS011;44284;51.310;16.904;2023-02-15T03:32:47;36.45;;;14.18;;
58496;SDS011;44284;51.310;16.904;2023-02-15T03:35:14;32.67;;;15.40;;
58496;SDS011;44284;51.310;16.904;2023-02-15T03:37:59;35.80;;;16.05;;
58496;SDS011;44284;51.310;16.904;2023-02-15T03:40:28;34.00;;;16.75;;
58496;SDS011;44284;51.310;16.904;2023-02-15T03:43:56;37.20;;;15.85;;
58496;SDS011;44284;51.310;16.904;2023-02-15T03:46:05;34.22;;;16.38;;
58496;SDS011;44284;51.310;16.904;2023-02-15T03:48:34;35.50;;;15.98;;
58496;SDS011;44284;51.310;16.904;2023-02-15T03:51:06;32.13;;;15.88;;
58496;SDS011;44284;51.310;16.904;2023-02-15T03:53:52;40.50;;;17.90;;
58496;SDS011;44284;51.310;16.904;2023-02-15T03:56:19;35.90;;;16.95;;
58496;SDS011;44284;51.310;16.904;2023-02-15T03:58:45;37.85;;;16.83;;
58496;SDS011;44284;51.310;16.904;2023-02-15T04:04:17;31.38;;;14.60;;
58496;SDS011;44284;51.310;16.904;2023-02-15T04:06:44;35.78;;;15.75;;
58496;SDS011;44284;51.310;16.904;2023-02-15T04:09:10;38.65;;;16.45;;
58496;SDS011;44284;51.310;16.904;2023-02-15T04:11:54;33.85;;;16.38;;
58496;SDS011;44284;51.310;16.904;2023-02-15T04:14:20;36.28;;;15.40;;
58496;SDS011;44284;51.310;16.904;2023-02-15T04:17:06;36.30;;;16.55;;
58496;SDS011;44284;51.310;16.904;2023-02-15T04:19:32;32.85;;;15.65;;
58496;SDS011;44284;51.310;16.904;2023-02-15T04:22:17;36.42;;;17.48;;
58496;SDS011;44284;51.310;16.904;2023-02-15T04:25:01;40.35;;;17.55;;
58496;SDS011;44284;51.310;16.904;2023-02-15T04:27:37;37.30;;;17.55;;
58496;SDS011;44284;51.310;16.904;2023-02-15T04:30:04;39.00;;;17.75;;
58496;SDS011;44284;51.310;16.904;2023-02-15T04:32:30;35.88;;;18.05;;
58496;SDS011;44284;51.310;16.904;2023-02-15T04:34:56;38.63;;;17.92;;
58496;SDS011;44284;51.310;16.904;2023-02-15T04:37:22;39.10;;;17.23;;
58496;SDS011;44284;51.310;16.904;2023-02-15T04:39:48;40.38;;;18.23;;
58496;SDS011;44284;51.310;16.904;2023-02-15T04:42:15;37.40;;;16.38;;
58496;SDS011;44284;51.310;16.904;2023-02-15T04:44:41;37.33;;;16.98;;
58496;SDS011;44284;51.310;16.904;2023-02-15T04:47:07;35.10;;;15.93;;
58496;SDS011;44284;51.310;16.904;2023-02-15T04:49:33;31.98;;;16.50;;
58496;SDS011;44284;51.310;16.904;2023-02-15T04:52:01;32.38;;;15.98;;
58496;SDS011;44284;51.310;16.904;2023-02-15T04:54:27;38.00;;;17.17;;
58496;SDS011;44284;51.310;16.904;2023-02-15T04:56:53;31.15;;;15.80;;
58496;SDS011;44284;51.310;16.904;2023-02-15T04:59:19;33.75;;;15.27;;
58496;SDS011;44284;51.310;16.904;2023-02-15T05:01:45;35.28;;;14.85;;
58496;SDS011;44284;51.310;16.904;2023-02-15T05:04:11;33.97;;;14.50;;
58496;SDS011;44284;51.310;16.904;2023-02-15T05:06:37;28.50;;;13.75;;
58496;SDS011;44284;51.310;16.904;2023-02-15T05:09:03;38.63;;;15.85;;
58496;SDS011;44284;51.310;16.904;2023-02-15T05:11:29;32.45;;;16.27;;
58496;SDS011;44284;51.310;16.904;2023-02-15T05:13:55;36.53;;;18.05;;
58496;SDS011;44284;51.310;16.904;2023-02-15T05:16:21;34.25;;;15.63;;
58496;SDS011;44284;51.310;16.904;2023-02-15T05:18:47;41.50;;;18.40;;
58496;SDS011;44284;51.310;16.904;2023-02-15T05:21:13;36.08;;;16.42;;
58496;SDS011;44284;51.310;16.904;2023-02-15T05:23:41;36.78;;;17.23;;
58496;SDS011;44284;51.310;16.904;2023-02-15T05:26:10;38.70;;;18.10;;
58496;SDS011;44284;51.310;16.904;2023-02-15T05:28:55;37.58;;;17.13;;
58496;SDS011;44284;51.310;16.904;2023-02-15T05:31:21;35.42;;;18.00;;
58496;SDS011;44284;51.310;16.904;2023-02-15T05:33:47;36.85;;;15.77;;
58496;SDS011;44284;51.310;16.904;2023-02-15T05:36:13;37.22;;;18.23;;
58496;SDS011;44284;51.310;16.904;2023-02-15T05:38:39;42.05;;;18.27;;
58496;SDS011;44284;51.310;16.904;2023-02-15T05:41:06;37.80;;;16.75;;
58496;SDS011;44284;51.310;16.904;2023-02-15T05:43:32;48.63;;;19.80;;
58496;SDS011;44284;51.310;16.904;2023-02-15T05:45:59;45.90;;;18.70;;
58496;SDS011;44284;51.310;16.904;2023-02-15T05:48:25;43.78;;;19.83;;
58496;SDS011;44284;51.310;16.904;2023-02-15T05:51:02;44.30;;;20.02;;
58496;SDS011;44284;51.310;16.904;2023-02-15T05:53:28;49.03;;;21.23;;
58496;SDS011;44284;51.310;16.904;2023-02-15T05:55:55;50.30;;;21.50;;
58496;SDS011;44284;51.310;16.904;2023-02-15T05:58:27;38.78;;;18.55;;
58496;SDS011;44284;51.310;16.904;2023-02-15T06:00:53;46.83;;;21.02;;
58496;SDS011;44284;51.310;16.904;2023-02-15T06:03:20;44.58;;;19.48;;
58496;SDS011;44284;51.310;16.904;2023-02-15T06:05:46;45.10;;;20.50;;
58496;SDS011;44284;51.310;16.904;2023-02-15T06:08:12;42.05;;;18.33;;
58496;SDS011;44284;51.310;16.904;2023-02-15T06:10:38;43.80;;;19.30;;
58496;SDS011;44284;51.310;16.904;2023-02-15T06:13:05;47.83;;;21.55;;
58496;SDS011;44284;51.310;16.904;2023-02-15T06:15:31;49.17;;;20.58;;
58496;SDS011;44284;51.310;16.904;2023-02-15T06:17:57;50.53;;;21.25;;
58496;SDS011;44284;51.310;16.904;2023-02-15T06:20:23;55.13;;;23.30;;
58496;SDS011;44284;51.310;16.904;2023-02-15T06:22:49;47.88;;;21.38;;
58496;SDS011;44284;51.310;16.904;2023-02-15T06:25:15;52.65;;;21.95;;
58496;SDS011;44284;51.310;16.904;2023-02-15T06:27:42;53.38;;;22.67;;
58496;SDS011;44284;51.310;16.904;2023-02-15T06:30:08;51.13;;;21.75;;
58496;SDS011;44284;51.310;16.904;2023-02-15T06:32:35;54.55;;;23.88;;
58496;SDS011;44284;51.310;16.904;2023-02-15T06:35:01;43.42;;;22.60;;
58496;SDS011;44284;51.310;16.904;2023-02-15T06:37:27;55.83;;;23.55;;
58496;SDS011;44284;51.310;16.904;2023-02-15T06:39:53;49.90;;;21.67;;
58496;SDS011;44284;51.310;16.904;2023-02-15T06:42:20;50.42;;;21.60;;
58496;SDS011;44284;51.310;16.904;2023-02-15T06:44:46;57.05;;;25.02;;
58496;SDS011;44284;51.310;16.904;2023-02-15T06:47:12;57.65;;;22.00;;
58496;SDS011;44284;51.310;16.904;2023-02-15T06:49:38;55.90;;;23.08;;
58496;SDS011;44284;51.310;16.904;2023-02-15T06:52:04;50.17;;;21.98;;
58496;SDS011;44284;51.310;16.904;2023-02-15T06:54:30;49.85;;;22.92;;
58496;SDS011;44284;51.310;16.904;2023-02-15T06:56:56;51.95;;;20.98;;
58496;SDS011;44284;51.310;16.904;2023-02-15T06:59:23;52.80;;;22.75;;
58496;SDS011;44284;51.310;16.904;2023-02-15T07:01:49;49.03;;;22.30;;
58496;SDS011;44284;51.310;16.904;2023-02-15T07:04:15;52.25;;;22.42;;
58496;SDS011;44284;51.310;16.904;2023-02-15T07:06:41;51.45;;;23.35;;
58496;SDS011;44284;51.310;16.904;2023-02-15T07:09:07;54.25;;;22.92;;
58496;SDS011;44284;51.310;16.904;2023-02-15T07:11:33;54.88;;;24.90;;
58496;SDS011;44284;51.310;16.904;2023-02-15T07:14:18;48.58;;;22.00;;
58496;SDS011;44284;51.310;16.904;2023-02-15T07:16:44;57.85;;;25.35;;
58496;SDS011;44284;51.310;16.904;2023-02-15T07:19:10;58.38;;;23.20;;
58496;SDS011;44284;51.310;16.904;2023-02-15T07:21:36;50.25;;;24.30;;
58496;SDS011;44284;51.310;16.904;2023-02-15T07:24:02;52.33;;;23.40;;
58496;SDS011;44284;51.310;16.904;2023-02-15T07:26:30;52.05;;;23.90;;
58496;SDS011;44284;51.310;16.904;2023-02-15T07:28:57;54.05;;;25.88;;
58496;SDS011;44284;51.310;16.904;2023-02-15T07:31:23;57.90;;;23.77;;
58496;SDS011;44284;51.310;16.904;2023-02-15T07:33:49;54.58;;;24.77;;
58496;SDS011;44284;51.310;16.904;2023-02-15T07:36:15;48.80;;;25.52;;
58496;SDS011;44284;51.310;16.904;2023-02-15T07:38:41;48.67;;;22.17;;
58496;SDS011;44284;51.310;16.904;2023-02-15T07:41:11;56.85;;;23.40;;
58496;SDS011;44284;51.310;16.904;2023-02-15T07:43:40;47.80;;;22.08;;
58496;SDS011;44284;51.310;16.904;2023-02-15T07:46:08;55.30;;;22.55;;
58496;SDS011;44284;51.310;16.904;2023-02-15T07:48:35;57.17;;;23.20;;
58496;SDS011;44284;51.310;16.904;2023-02-15T07:51:02;47.92;;;22.05;;
58496;SDS011;44284;51.310;16.904;2023-02-15T07:53:29;51.22;;;23.52;;
58496;SDS011;44284;51.310;16.904;2023-02-15T07:55:58;46.15;;;22.85;;
58496;SDS011;44284;51.310;16.904;2023-02-15T07:58:25;50.20;;;23.48;;
58496;SDS011;44284;51.310;16.904;2023-02-15T08:01:11;49.70;;;22.40;;
58496;SDS011;44284;51.310;16.904;2023-02-15T08:03:37;47.03;;;21.38;;
58496;SDS011;44284;51.310;16.904;2023-02-15T08:06:03;45.70;;;20.20;;
58496;SDS011;44284;51.310;16.904;2023-02-15T08:08:29;52.53;;;23.67;;
58496;SDS011;44284;51.310;16.904;2023-02-15T08:13:43;43.70;;;21.05;;
58496;SDS011;44284;51.310;16.904;2023-02-15T08:16:18;51.35;;;23.20;;
58496;SDS011;44284;51.310;16.904;2023-02-15T08:18:44;42.20;;;21.55;;
58496;SDS011;44284;51.310;16.904;2023-02-15T08:21:10;47.72;;;22.05;;
58496;SDS011;44284;51.310;16.904;2023-02-15T08:23:36;50.22;;;24.02;;
58496;SDS011;44284;51.310;16.904;2023-02-15T08:26:02;51.22;;;24.10;;
58496;SDS011;44284;51.310;16.904;2023-02-15T08:28:29;50.13;;;21.13;;
58496;SDS011;44284;51.310;16.904;2023-02-15T08:31:03;48.70;;;22.10;;
58496;SDS011;44284;51.310;16.904;2023-02-15T08:33:29;48.83;;;21.95;;
58496;SDS011;44284;51.310;16.904;2023-02-15T08:35:55;50.92;;;22.20;;
58496;SDS011;44284;51.310;16.904;2023-02-15T08:38:21;48.10;;;22.50;;
58496;SDS011;44284;51.310;16.904;2023-02-15T08:40:47;43.28;;;23.00;;
58496;SDS011;44284;51.310;16.904;2023-02-15T08:43:13;49.50;;;23.17;;
58496;SDS011;44284;51.310;16.904;2023-02-15T08:45:39;47.08;;;22.58;;
58496;SDS011;44284;51.310;16.904;2023-02-15T08:48:05;50.17;;;24.85;;
58496;SDS011;44284;51.310;16.904;2023-02-15T08:50:31;50.47;;;25.80;;
58496;SDS011;44284;51.310;16.904;2023-02-15T08:52:58;55.33;;;26.63;;
58496;SDS011;44284;51.310;16.904;2023-02-15T08:55:24;56.97;;;26.02;;
58496;SDS011;44284;51.310;16.904;2023-02-15T08:57:50;47.45;;;21.70;;
58496;SDS011;44284;51.310;16.904;2023-02-15T09:00:16;49.45;;;22.52;;
58496;SDS011;44284;51.310;16.904;2023-02-15T09:02:42;41.03;;;20.00;;
58496;SDS011;44284;51.310;16.904;2023-02-15T09:05:08;47.38;;;21.27;;
58496;SDS011;44284;51.310;16.904;2023-02-15T09:07:34;51.22;;;22.63;;
58496;SDS011;44284;51.310;16.904;2023-02-15T09:10:00;49.33;;;22.25;;
58496;SDS011;44284;51.310;16.904;2023-02-15T09:12:26;49.30;;;23.52;;
58496;SDS011;44284;51.310;16.904;2023-02-15T09:14:52;52.08;;;23.00;;
58496;SDS011;44284;51.310;16.904;2023-02-15T09:17:18;46.35;;;22.27;;
58496;SDS011;44284;51.310;16.904;2023-02-15T09:19:44;63.67;;;27.05;;
58496;SDS011;44284;51.310;16.904;2023-02-15T09:22:10;50.05;;;23.10;;
58496;SDS011;44284;51.310;16.904;2023-02-15T09:24:36;50.20;;;24.58;;
58496;SDS011;44284;51.310;16.904;2023-02-15T09:27:02;49.97;;;23.77;;
58496;SDS011;44284;51.310;16.904;2023-02-15T09:29:28;52.70;;;25.05;;
58496;SDS011;44284;51.310;16.904;2023-02-15T09:31:54;53.45;;;24.77;;
58496;SDS011;44284;51.310;16.904;2023-02-15T09:34:21;52.53;;;23.63;;
58496;SDS011;44284;51.310;16.904;2023-02-15T09:36:48;53.05;;;25.08;;
58496;SDS011;44284;51.310;16.904;2023-02-15T09:51:56;45.88;;;20.70;;
58496;SDS011;44284;51.310;16.904;2023-02-15T10:00:15;45.95;;;22.73;;
58496;SDS011;44284;51.310;16.904;2023-02-15T10:02:59;48.10;;;21.85;;
58496;SDS011;44284;51.310;16.904;2023-02-15T10:08:15;38.85;;;20.23;;
58496;SDS011;44284;51.310;16.904;2023-02-15T10:11:07;38.35;;;19.83;;
58496;SDS011;44284;51.310;16.904;2023-02-15T10:13:59;39.10;;;19.08;;
58496;SDS011;44284;51.310;16.904;2023-02-15T10:26:49;41.85;;;20.65;;
58496;SDS011;44284;51.310;16.904;2023-02-15T10:29:28;46.45;;;23.38;;
58496;SDS011;44284;51.310;16.904;2023-02-15T10:32:10;42.75;;;22.80;;
58496;SDS011;44284;51.310;16.904;2023-02-15T10:40:04;40.00;;;19.77;;
58496;SDS011;44284;51.310;16.904;2023-02-15T10:47:51;43.20;;;21.08;;
58496;SDS011;44284;51.310;16.904;2023-02-15T10:50:40;47.70;;;23.63;;
58496;SDS011;44284;51.310;16.904;2023-02-15T10:55:40;46.72;;;22.58;;
58496;SDS011;44284;51.310;16.904;2023-02-15T11:03:20;49.08;;;23.75;;
58496;SDS011;44284;51.310;16.904;2023-02-15T11:06:06;41.30;;;22.35;;
58496;SDS011;44284;51.310;16.904;2023-02-15T11:08:39;50.95;;;22.20;;
58496;SDS011;44284;51.310;16.904;2023-02-15T11:11:07;50.17;;;24.40;;
58496;SDS011;44284;51.310;16.904;2023-02-15T11:13:36;50.92;;;24.48;;
58496;SDS011;44284;51.310;16.904;2023-02-15T11:16:05;43.92;;;21.63;;
58496;SDS011;44284;51.310;16.904;2023-02-15T11:18:35;45.15;;;22.70;;
58496;SDS011;44284;51.310;16.904;2023-02-15T11:23:28;44.92;;;23.10;;
58496;SDS011;44284;51.310;16.904;2023-02-15T11:25:56;47.17;;;24.50;;
58496;SDS011;44284;51.310;16.904;2023-02-15T11:28:29;52.40;;;25.67;;
58496;SDS011;44284;51.310;16.904;2023-02-15T11:30:56;50.15;;;24.52;;
58496;SDS011;44284;51.310;16.904;2023-02-15T11:33:31;50.80;;;23.95;;
58496;SDS011;44284;51.310;16.904;2023-02-15T11:36:02;47.13;;;21.67;;
58496;SDS011;44284;51.310;16.904;2023-02-15T11:38:31;41.42;;;20.83;;
58496;SDS011;44284;51.310;16.904;2023-02-15T11:41:02;43.45;;;21.30;;
58496;SDS011;44284;51.310;16.904;2023-02-15T11:43:34;51.78;;;24.23;;
58496;SDS011;44284;51.310;16.904;2023-02-15T11:46:01;43.47;;;22.05;;
58496;SDS011;44284;51.310;16.904;2023-02-15T11:48:27;49.13;;;25.27;;
58496;SDS011;44284;51.310;16.904;2023-02-15T11:50:55;46.30;;;23.27;;
58496;SDS011;44284;51.310;16.904;2023-02-15T11:53:22;43.20;;;21.80;;
58496;SDS011;44284;51.310;16.904;2023-02-15T11:55:52;53.83;;;24.70;;
58496;SDS011;44284;51.310;16.904;2023-02-15T11:58:39;44.65;;;21.77;;
58496;SDS011;44284;51.310;16.904;2023-02-15T12:01:11;45.78;;;22.73;;
58496;SDS011;44284;51.310;16.904;2023-02-15T12:03:48;44.67;;;23.08;;
58496;SDS011;44284;51.310;16.904;2023-02-15T12:06:26;40.70;;;21.27;;
58496;SDS011;44284;51.310;16.904;2023-02-15T12:09:06;52.15;;;25.05;;
58496;SDS011;44284;51.310;16.904;2023-02-15T12:11:37;43.78;;;23.23;;
58496;SDS011;44284;51.310;16.904;2023-02-15T12:14:07;38.78;;;19.85;;
58496;SDS011;44284;51.310;16.904;2023-02-15T12:16:40;39.20;;;21.70;;
58496;SDS011;44284;51.310;16.904;2023-02-15T12:19:10;51.67;;;24.70;;
58496;SDS011;44284;51.310;16.904;2023-02-15T12:21:39;49.90;;;23.70;;
58496;SDS011;44284;51.310;16.904;2023-02-15T12:26:42;44.72;;;22.65;;
58496;SDS011;44284;51.310;16.904;2023-02-15T12:29:17;45.25;;;22.48;;
58496;SDS011;44284;51.310;16.904;2023-02-15T12:31:47;38.63;;;20.40;;
58496;SDS011;44284;51.310;16.904;2023-02-15T12:34:32;44.78;;;21.58;;
58496;SDS011;44284;51.310;16.904;2023-02-15T12:37:02;39.28;;;20.77;;
58496;SDS011;44284;51.310;16.904;2023-02-15T12:42:03;35.92;;;18.45;;
58496;SDS011;44284;51.310;16.904;2023-02-15T12:44:32;38.67;;;19.92;;
58496;SDS011;44284;51.310;16.904;2023-02-15T12:49:25;34.67;;;18.88;;
58496;SDS011;44284;51.310;16.904;2023-02-15T12:51:52;36.88;;;20.58;;
58496;SDS011;44284;51.310;16.904;2023-02-15T12:56:48;41.75;;;19.98;;
58496;SDS011;44284;51.310;16.904;2023-02-15T12:59:14;40.42;;;20.75;;
58496;SDS011;44284;51.310;16.904;2023-02-15T13:01:41;39.70;;;20.33;;
58496;SDS011;44284;51.310;16.904;2023-02-15T13:04:29;40.65;;;20.35;;
58496;SDS011;44284;51.310;16.904;2023-02-15T13:06:55;39.97;;;21.00;;
58496;SDS011;44284;51.310;16.904;2023-02-15T13:09:35;35.85;;;18.48;;
58496;SDS011;44284;51.310;16.904;2023-02-15T13:14:36;38.35;;;20.65;;
58496;SDS011;44284;51.310;16.904;2023-02-15T13:17:03;36.30;;;18.23;;
58496;SDS011;44284;51.310;16.904;2023-02-15T13:19:34;37.90;;;19.95;;
58496;SDS011;44284;51.310;16.904;2023-02-15T13:22:02;40.40;;;21.13;;
58496;SDS011;44284;51.310;16.904;2023-02-15T13:24:35;38.53;;;21.83;;
58496;SDS011;44284;51.310;16.904;2023-02-15T13:27:02;35.22;;;20.17;;
58496;SDS011;44284;51.310;16.904;2023-02-15T13:29:33;36.33;;;20.38;;
58496;SDS011;44284;51.310;16.904;2023-02-15T13:32:46;40.45;;;20.75;;
58496;SDS011;44284;51.310;16.904;2023-02-15T13:34:47;35.42;;;18.95;;
58496;SDS011;44284;51.310;16.904;2023-02-15T13:47:22;40.05;;;20.23;;
58496;SDS011;44284;51.310;16.904;2023-02-15T13:52:24;37.88;;;20.70;;
58496;SDS011;44284;51.310;16.904;2023-02-15T13:54:54;35.05;;;18.40;;
58496;SDS011;44284;51.310;16.904;2023-02-15T14:07:58;44.08;;;21.92;;
58496;SDS011;44284;51.310;16.904;2023-02-15T14:15:44;48.10;;;23.70;;
58496;SDS011;44284;51.310;16.904;2023-02-15T14:25:49;43.58;;;22.00;;
58496;SDS011;44284;51.310;16.904;2023-02-15T14:30:48;44.50;;;24.40;;
58496;SDS011;44284;51.310;16.904;2023-02-15T14:36:00;49.17;;;24.95;;
58496;SDS011;44284;51.310;16.904;2023-02-15T14:38:43;42.75;;;23.15;;
58496;SDS011;44284;51.310;16.904;2023-02-15T14:41:15;50.40;;;23.55;;
58496;SDS011;44284;51.310;16.904;2023-02-15T14:49:23;51.28;;;24.92;;
58496;SDS011;44284;51.310;16.904;2023-02-15T14:56:42;48.45;;;25.17;;
58496;SDS011;44284;51.310;16.904;2023-02-15T14:59:19;46.72;;;24.02;;
58496;SDS011;44284;51.310;16.904;2023-02-15T15:01:55;50.97;;;27.45;;
58496;SDS011;44284;51.310;16.904;2023-02-15T15:04:26;46.90;;;22.30;;
58496;SDS011;44284;51.310;16.904;2023-02-15T15:09:29;45.17;;;23.75;;
58496;SDS011;44284;51.310;16.904;2023-02-15T15:14:42;60.80;;;29.92;;
58496;SDS011;44284;51.310;16.904;2023-02-15T15:17:12;61.17;;;33.55;;
58496;SDS011;44284;51.310;16.904;2023-02-15T15:29:54;49.17;;;23.05;;
58496;SDS011;44284;51.310;16.904;2023-02-15T15:32:22;50.85;;;25.77;;
58496;SDS011;44284;51.310;16.904;2023-02-15T15:35:04;57.47;;;30.00;;
58496;SDS011;44284;51.310;16.904;2023-02-15T15:42:58;48.08;;;23.67;;
58496;SDS011;44284;51.310;16.904;2023-02-15T15:45:49;50.58;;;22.85;;
58496;SDS011;44284;51.310;16.904;2023-02-15T15:48:32;48.58;;;24.60;;
58496;SDS011;44284;51.310;16.904;2023-02-15T15:51:00;51.60;;;26.08;;
58496;SDS011;44284;51.310;16.904;2023-02-15T15:53:28;52.97;;;25.38;;
58496;SDS011;44284;51.310;16.904;2023-02-15T15:55:57;59.63;;;29.23;;
58496;SDS011;44284;51.310;16.904;2023-02-15T15:58:25;53.85;;;26.13;;
58496;SDS011;44284;51.310;16.904;2023-02-15T16:00:52;57.58;;;29.13;;
58496;SDS011;44284;51.310;16.904;2023-02-15T16:03:22;52.00;;;26.85;;
58496;SDS011;44284;51.310;16.904;2023-02-15T16:05:48;51.55;;;26.33;;
58496;SDS011;44284;51.310;16.904;2023-02-15T16:08:38;51.22;;;25.40;;
58496;SDS011;44284;51.310;16.904;2023-02-15T16:11:13;48.88;;;26.17;;
58496;SDS011;44284;51.310;16.904;2023-02-15T16:13:40;53.80;;;27.88;;
58496;SDS011;44284;51.310;16.904;2023-02-15T16:16:07;50.60;;;26.33;;
58496;SDS011;44284;51.310;16.904;2023-02-15T16:18:33;52.03;;;28.52;;
58496;SDS011;44284;51.310;16.904;2023-02-15T16:21:03;58.20;;;29.85;;
58496;SDS011;44284;51.310;16.904;2023-02-15T16:28:50;63.20;;;35.60;;
58496;SDS011;44284;51.310;16.904;2023-02-15T16:31:16;58.63;;;33.00;;
58496;SDS011;44284;51.310;16.904;2023-02-15T16:33:43;67.40;;;39.78;;
58496;SDS011;44284;51.310;16.904;2023-02-15T16:36:20;58.05;;;33.78;;
58496;SDS011;44284;51.310;16.904;2023-02-15T16:41:12;60.75;;;32.22;;
58496;SDS011;44284;51.310;16.904;2023-02-15T16:43:39;62.17;;;32.97;;
58496;SDS011;44284;51.310;16.904;2023-02-15T16:46:08;63.97;;;31.85;;
58496;SDS011;44284;51.310;16.904;2023-02-15T16:48:39;62.55;;;32.60;;
58496;SDS011;44284;51.310;16.904;2023-02-15T16:51:06;56.15;;;31.65;;
58496;SDS011;44284;51.310;16.904;2023-02-15T16:53:32;70.45;;;37.63;;
58496;SDS011;44284;51.310;16.904;2023-02-15T16:56:02;78.78;;;40.22;;
58496;SDS011;44284;51.310;16.904;2023-02-15T17:00:56;83.10;;;42.30;;
58496;SDS011;44284;51.310;16.904;2023-02-15T17:03:23;81.97;;;43.15;;
58496;SDS011;44284;51.310;16.904;2023-02-15T17:06:00;84.55;;;44.38;;
58496;SDS011;44284;51.310;16.904;2023-02-15T17:08:42;102.75;;;51.85;;
58496;SDS011;44284;51.310;16.904;2023-02-15T17:11:41;113.32;;;55.95;;
58496;SDS011;44284;51.310;16.904;2023-02-15T17:16:43;107.38;;;54.92;;
58496;SDS011;44284;51.310;16.904;2023-02-15T17:19:33;92.88;;;49.65;;
58496;SDS011;44284;51.310;16.904;2023-02-15T17:22:03;91.05;;;46.25;;